Date,TemperatureHighF,TemperatureAvgF,TemperatureLowF,DewpointHighF,DewpointAvgF,DewpointLowF,HumidityHigh,HumidityAvg,HumidityLow,PressureMaxIn,PressureMinIn,WindSpeedMaxMPH,WindSpeedAvgMPH,GustSpeedMaxMPH,PrecipitationSumIn
2013-6-1,85,76,69,73,68,65,89,77,64,29.97,29.88,17,2,17,0.00
2013-6-2,82,76,0,71,68,65,90,75,67,29.80,29.72,15,3,15,0.00
2013-6-3,76,70,66,70,68,57,99,91,67,29.81,29.73,15,1,15,0.64
2013-6-4,76,68,59,57,49,45,70,52,38,30.04,29.80,17,2,17,0.00
2013-6-5,75,67,0,57,50,44,84,55,40,30.15,30.03,12,1,12,0.00
2013-6-6,72,65,60,60,58,52,92,79,50,30.09,29.95,14,1,14,0.02
2013-6-7,63,62,59,62,60,58,99,96,89,29.96,29.54,17,1,17,1.92
2013-6-8,76,67,57,67,62,56,99,86,71,29.98,29.48,16,1,16,1.97
2013-6-9,79,71,63,64,62,58,94,74,54,30.11,29.98,15,1,15,0.00
2013-6-11,79,75,70,69,66,61,84,73,69,29.65,29.53,20,3,20,0.04
2013-6-12,77,71,65,61,58,54,77,63,50,29.79,29.63,21,2,21,0.00
2013-6-13,67,64,56,62,59,55,96,86,73,29.78,29.36,19,1,19,0.57
2013-6-14,73,61,54,60,55,52,96,82,62,29.81,29.41,20,2,20,0.57
2013-6-15,81,70,60,62,58,53,86,67,41,29.93,29.80,15,1,15,0.01
2013-6-16,80,72,62,68,62,55,88,72,49,29.92,29.69,16,2,16,0.00
2013-6-17,84,76,69,71,67,65,90,76,61,29.85,29.77,17,2,17,0.01
2013-6-18,83,72,0,71,67,64,94,84,64,29.84,29.75,10,0,10,1.65
2013-6-19,77,69,60,64,57,49,96,69,39,30.11,29.80,13,1,13,1.65
2013-6-20,78,69,60,62,57,55,85,67,52,30.22,30.10,11,2,15,1.65
2013-6-21,80,71,63,61,57,53,78,62,50,30.25,30.19,13,2,13,1.65
2013-6-22,81,75,69,67,62,58,76,64,55,30.20,30.09,10,2,12,0.00
2013-6-23,84,75,68,73,68,60,95,78,68,30.14,30.00,17,2,17,0.02
2013-6-24,90,78,72,77,73,70,98,87,61,30.03,29.96,11,1,11,0.07